Date,TemperatureHighF,TemperatureAvgF,TemperatureLowF,DewpointHighF,DewpointAvgF,DewpointLowF,HumidityHigh,HumidityAvg,HumidityLow,PressureMaxIn,PressureMinIn,WindSpeedMaxMPH,WindSpeedAvgMPH,GustSpeedMaxMPH,PrecipitationSumIn
2013-2-1,33,24,14,14,6,-4,58,45,27,0.00,40.00,15,9,27,0.00
2013-2-2,53,41,28,29,23,14,58,48,33,0.00,40.00,11,8,18,0.00
2013-2-3,54,46,39,28,22,17,54,40,26,0.00,40.00,15,9,25,0.00
2013-2-4,49,44,41,46,35,20,100,74,38,0.00,40.00,11,7,17,0.04
2013-2-5,58,50,42,49,45,33,100,81,49,0.00,40.00,10,6,14,0.01
2013-2-6,54,49,45,46,37,27,100,65,46,0.00,40.00,13,10,22,0.01
2013-2-7,53,48,45,52,47,42,100,96,85,0.00,40.00,15,8,23,0.39
2013-2-8,53,42,33,45,33,27,100,76,36,0.00,40.00,15,9,25,0.21
2013-2-9,36,32,28,36,32,27,100,98,70,0.00,40.00,15,12,24,0.18
2013-2-10,57,48,36,54,37,25,100,72,35,0.00,40.00,15,12,25,1.13
2013-2-11,51,43,36,30,25,22,60,50,37,0.00,40.00,15,8,26,0.72
2013-2-12,45,39,32,36,28,22,100,70,45,0.00,40.00,12,7,26,0.11
2013-2-13,45,37,31,39,33,30,100,87,62,0.00,40.00,12,9,20,0.17
2013-2-14,58,48,40,34,30,22,66,50,37,0.00,40.00,14,8,22,0.03
2013-2-15,43,35,28,29,20,10,67,54,41,0.00,40.00,15,11,25,0.00
2013-2-16,36,30,24,21,13,7,87,51,29,0.00,40.00,12,8,22,0.00
2013-2-17,54,42,31,32,21,8,54,42,34,0.00,40.00,10,8,16,0.00
2013-2-18,54,46,36,54,40,29,100,81,54,0.00,40.00,18,12,36,0.20
2013-2-19,43,35,27,29,16,13,77,48,32,0.00,40.00,19,10,39,0.20
2013-2-20,34,29,25,29,20,9,100,74,43,0.00,40.00,14,8,24,0.03
2013-2-21,32,30,26,32,26,20,100,88,66,0.00,40.00,19,9,32,0.03
2013-2-22,37,30,23,35,28,22,100,95,84,0.00,40.00,5,1,8,0.61
2013-2-23,45,33,23,28,24,19,92,71,50,0.00,40.00,8,5,12,0.04
2013-2-24,50,41,33,32,29,23,82,62,48,0.00,40.00,16,11,25,0.01
2013-2-25,49,42,36,42,34,27,100,77,47,0.00,40.00,19,13,37,0.77
2013-2-26,36,32,30,36,32,30,100,100,95,0.00,40.00,13,10,27,0.22
2013-2-27,38,33,30,32,29,24,100,86,62,0.00,40.00,15,11,27,0.01
2013-2-28,41,32,26,27,24,22,100,75,53,0.00,40.00,15,11,24,0.00